createdAt,value
2017-08-24T00:00:40.275Z,23.20
2017-08-24T00:03:08.335Z,23.30
2017-08-24T00:05:36.417Z,23.30
2017-08-24T00:08:04.492Z,23.30
2017-08-24T00:10:32.553Z,23.20
2017-08-24T00:13:00.602Z,23.20
2017-08-24T00:15:28.687Z,23.20
2017-08-24T00:17:56.759Z,23.20
2017-08-24T00:20:24.831Z,23.20
2017-08-24T00:22:52.885Z,23.10
2017-08-24T00:25:20.931Z,22.90
2017-08-24T00:27:48.991Z,22.70
2017-08-24T00:30:17.079Z,22.60
2017-08-24T00:32:45.134Z,22.60
2017-08-24T00:35:13.183Z,22.50
2017-08-24T00:37:41.250Z,22.40
2017-08-24T00:40:09.331Z,22.40
2017-08-24T00:42:37.392Z,22.40
2017-08-24T00:45:05.471Z,22.30
2017-08-24T00:47:33.539Z,22.40
2017-08-24T00:50:01.608Z,22.30
2017-08-24T00:52:29.687Z,22.30
2017-08-24T00:54:57.754Z,22.20
2017-08-24T00:57:25.827Z,22.20
2017-08-24T00:59:53.894Z,22.00
2017-08-24T01:02:21.962Z,21.90
2017-08-24T01:04:50.030Z,21.80
2017-08-24T01:07:18.106Z,21.60
2017-08-24T01:09:46.183Z,21.60
2017-08-24T01:12:14.250Z,21.60
2017-08-24T01:14:42.349Z,21.70
2017-08-24T01:17:10.476Z,21.70
2017-08-24T01:19:38.543Z,21.70
2017-08-24T01:22:06.611Z,21.80
2017-08-24T01:24:34.684Z,21.80
2017-08-24T01:27:03.030Z,21.70
2017-08-24T01:29:31.102Z,21.70
2017-08-24T01:31:59.182Z,21.70
2017-08-24T01:34:27.271Z,21.70
2017-08-24T01:36:55.338Z,21.70
2017-08-24T01:39:23.412Z,21.70
2017-08-24T01:41:51.489Z,21.70
2017-08-24T01:44:19.550Z,21.50
2017-08-24T01:46:56.535Z,21.60
2017-08-24T01:49:24.641Z,21.40
2017-08-24T01:51:52.694Z,21.50
2017-08-24T01:54:20.750Z,21.60
2017-08-24T01:56:48.824Z,21.50
2017-08-24T01:59:16.927Z,21.50
2017-08-24T02:01:45.011Z,21.70
2017-08-24T02:04:13.077Z,21.50
2017-08-24T02:06:41.154Z,21.60
2017-08-24T02:09:09.214Z,21.60
2017-08-24T02:11:37.291Z,21.60
2017-08-24T02:14:05.356Z,21.60
2017-08-24T02:16:33.429Z,21.70
2017-08-24T02:19:01.497Z,21.70
2017-08-24T02:21:29.587Z,21.70
2017-08-24T02:23:57.651Z,21.60
2017-08-24T02:26:25.744Z,21.60
2017-08-24T02:28:55.115Z,21.50
2017-08-24T02:31:23.203Z,21.50
2017-08-24T02:33:51.283Z,21.50
2017-08-24T02:36:19.344Z,21.50
2017-08-24T02:38:47.402Z,21.60
2017-08-24T02:41:15.475Z,21.60
2017-08-24T02:43:43.546Z,21.40
2017-08-24T02:46:11.621Z,21.30
2017-08-24T02:48:39.683Z,21.40
2017-08-24T02:51:07.750Z,21.60
2017-08-24T02:53:35.823Z,21.60
2017-08-24T02:56:03.895Z,21.60
2017-08-24T02:58:31.976Z,21.60
2017-08-24T03:01:00.039Z,21.60
2017-08-24T03:03:28.099Z,21.50
2017-08-24T03:05:56.166Z,21.50
2017-08-24T03:08:24.243Z,21.60
2017-08-24T03:10:52.306Z,21.70
2017-08-24T03:13:20.372Z,21.80
2017-08-24T03:15:48.437Z,21.70
2017-08-24T03:18:16.519Z,21.60
2017-08-24T03:20:44.587Z,21.60
2017-08-24T03:23:12.682Z,21.40
2017-08-24T03:25:40.759Z,21.40
2017-08-24T03:28:08.844Z,21.40
2017-08-24T03:30:36.906Z,21.40
2017-08-24T03:33:05.760Z,21.50
2017-08-24T03:35:33.851Z,21.60
2017-08-24T03:38:01.924Z,21.50
2017-08-24T03:40:29.995Z,21.50
2017-08-24T03:42:58.075Z,21.50
2017-08-24T03:45:26.139Z,21.50
2017-08-24T03:47:54.278Z,21.40
2017-08-24T03:50:22.338Z,21.40
2017-08-24T03:52:50.412Z,21.40
2017-08-24T03:55:18.491Z,21.30
2017-08-24T03:57:46.562Z,21.30
2017-08-24T04:00:14.644Z,21.20
2017-08-24T04:02:42.700Z,21.00
2017-08-24T04:05:10.793Z,20.90
2017-08-24T04:07:38.862Z,21.00
2017-08-24T04:10:06.935Z,21.00
2017-08-24T04:12:35.804Z,20.90
2017-08-24T04:15:03.917Z,20.90
2017-08-24T04:17:31.999Z,20.90
2017-08-24T04:20:00.110Z,20.90
2017-08-24T04:22:28.182Z,20.80
2017-08-24T04:24:56.255Z,20.70
2017-08-24T04:27:24.327Z,20.60
2017-08-24T04:29:52.398Z,20.60
2017-08-24T04:32:21.599Z,20.50
2017-08-24T04:34:49.666Z,20.50
2017-08-24T04:37:17.735Z,20.50
2017-08-24T04:39:45.824Z,20.40
2017-08-24T04:42:13.910Z,20.40
2017-08-24T04:44:42.002Z,20.40
2017-08-24T04:47:10.979Z,20.30
2017-08-24T04:49:39.079Z,20.30
2017-08-24T04:52:07.154Z,20.30
2017-08-24T04:54:35.280Z,20.40
2017-08-24T04:57:04.124Z,20.40
2017-08-24T04:59:32.207Z,20.30
2017-08-24T05:02:01.047Z,20.30
2017-08-24T05:04:29.106Z,20.20
2017-08-24T05:06:57.215Z,20.20
2017-08-24T05:09:25.275Z,20.30
2017-08-24T05:11:53.335Z,20.40
2017-08-24T05:14:21.435Z,20.20
2017-08-24T05:16:49.501Z,20.30
2017-08-24T05:19:17.574Z,20.40
2017-08-24T05:21:45.655Z,20.50
2017-08-24T05:24:13.714Z,20.50
2017-08-24T05:26:41.787Z,20.50
2017-08-24T05:29:09.858Z,20.40
2017-08-24T05:31:37.931Z,20.20
2017-08-24T05:34:06.022Z,20.40
2017-08-24T05:36:34.875Z,20.30
2017-08-24T05:39:02.938Z,20.20
2017-08-24T05:41:31.007Z,20.20
2017-08-24T05:43:59.075Z,20.30
2017-08-24T05:46:27.135Z,20.40
2017-08-24T05:48:55.243Z,20.50
2017-08-24T05:51:23.294Z,20.60
2017-08-24T05:53:51.366Z,20.70
2017-08-24T05:56:19.452Z,20.70
2017-08-24T05:58:47.495Z,20.70
2017-08-24T06:01:15.558Z,20.60
2017-08-24T06:03:43.662Z,20.50
2017-08-24T06:06:11.726Z,20.40
2017-08-24T06:08:39.790Z,20.40
2017-08-24T06:11:07.863Z,20.30
2017-08-24T06:13:35.935Z,20.20
2017-08-24T06:16:04.008Z,20.10
2017-08-24T06:18:32.122Z,20.20
2017-08-24T06:21:00.293Z,20.20
2017-08-24T06:23:28.351Z,20.30
2017-08-24T06:25:57.198Z,20.50
2017-08-24T06:28:25.282Z,20.40
2017-08-24T06:30:53.354Z,20.50
2017-08-24T06:33:21.427Z,20.50
2017-08-24T06:35:49.527Z,20.50
2017-08-24T06:38:17.734Z,20.60
2017-08-24T06:40:47.444Z,20.70
2017-08-24T06:43:15.539Z,20.60
2017-08-24T06:45:43.628Z,20.80
2017-08-24T06:48:11.699Z,20.80
2017-08-24T06:50:39.766Z,20.80
2017-08-24T06:53:07.883Z,20.80
2017-08-24T06:55:35.947Z,20.90
2017-08-24T06:58:04.027Z,21.10
2017-08-24T07:00:32.877Z,21.00
2017-08-24T07:03:00.968Z,20.90
2017-08-24T07:05:29.051Z,20.80
2017-08-24T07:07:57.129Z,20.70
2017-08-24T07:10:25.955Z,20.60
2017-08-24T07:12:54.028Z,20.50
2017-08-24T07:15:22.094Z,20.50
2017-08-24T07:17:50.176Z,20.40
2017-08-24T07:20:18.247Z,20.30
2017-08-24T07:22:46.315Z,20.40
2017-08-24T07:25:14.396Z,20.60
2017-08-24T07:27:42.464Z,20.60
2017-08-24T07:30:10.563Z,20.50
2017-08-24T07:32:38.611Z,20.40
2017-08-24T07:35:06.679Z,20.10
2017-08-24T07:37:34.759Z,20.10
2017-08-24T07:40:02.823Z,20.10
2017-08-24T07:42:30.895Z,20.10
2017-08-24T07:44:58.946Z,20.00
2017-08-24T07:47:27.021Z,20.20
2017-08-24T07:49:55.096Z,20.40
2017-08-24T07:52:23.155Z,20.40
2017-08-24T07:54:51.251Z,20.40
2017-08-24T07:57:20.115Z,20.30
2017-08-24T07:59:48.222Z,20.30
2017-08-24T08:02:16.270Z,20.30
2017-08-24T08:04:44.339Z,20.20
2017-08-24T08:07:12.491Z,20.30
2017-08-24T08:09:40.548Z,20.30
2017-08-24T08:12:08.635Z,20.30
2017-08-24T08:14:36.695Z,20.40
2017-08-24T08:17:04.779Z,20.70
2017-08-24T08:19:32.839Z,21.00
2017-08-24T08:22:00.915Z,21.10
2017-08-24T08:24:29.003Z,21.00
2017-08-24T08:26:57.063Z,21.30
2017-08-24T08:29:25.133Z,21.40
2017-08-24T08:31:53.207Z,21.60
2017-08-24T08:34:21.276Z,21.70
2017-08-24T08:36:49.347Z,22.10
2017-08-24T08:39:17.443Z,22.10
2017-08-24T08:41:45.520Z,22.10
2017-08-24T08:44:13.607Z,22.20
2017-08-24T08:46:42.451Z,22.50
2017-08-24T08:49:10.535Z,22.40
2017-08-24T08:51:38.591Z,22.50
2017-08-24T08:54:07.129Z,22.40
2017-08-24T08:56:35.207Z,22.40
2017-08-24T08:59:03.295Z,22.30
2017-08-24T09:01:31.386Z,22.20
2017-08-24T09:03:59.470Z,22.30
2017-08-24T09:06:28.124Z,22.60
2017-08-24T09:08:56.198Z,22.60
2017-08-24T09:11:24.280Z,22.50
2017-08-24T09:13:52.351Z,22.80
2017-08-24T09:16:20.414Z,23.10
2017-08-24T09:18:48.487Z,23.30
2017-08-24T09:21:16.579Z,23.40
2017-08-24T09:23:44.635Z,23.30
2017-08-24T09:26:12.708Z,22.90
2017-08-24T09:28:40.787Z,22.90
2017-08-24T09:31:08.861Z,23.50
2017-08-24T09:33:36.936Z,23.80
2017-08-24T09:36:05.041Z,23.80
2017-08-24T09:38:33.883Z,24.90
2017-08-24T09:41:01.943Z,24.90
2017-08-24T09:43:30.026Z,25.30
2017-08-24T09:45:58.095Z,26.40
2017-08-24T09:48:26.186Z,26.70
2017-08-24T09:50:54.254Z,26.80
2017-08-24T09:53:23.110Z,25.70
2017-08-24T09:55:51.178Z,25.60
2017-08-24T09:58:19.260Z,24.70
2017-08-24T10:00:47.323Z,24.00
2017-08-24T10:03:15.387Z,23.70
2017-08-24T10:05:43.477Z,23.60
2017-08-24T10:08:11.527Z,23.40
2017-08-24T10:10:39.601Z,23.00
2017-08-24T10:13:07.687Z,22.90
2017-08-24T10:15:35.747Z,23.10
2017-08-24T10:18:03.821Z,23.10
2017-08-24T10:20:32.806Z,23.70
2017-08-24T10:23:00.882Z,24.10
2017-08-24T10:25:28.947Z,24.40
2017-08-24T10:27:57.027Z,24.50
2017-08-24T10:30:25.151Z,24.70
2017-08-24T10:32:53.167Z,24.30
2017-08-24T10:35:21.238Z,24.20
2017-08-24T10:37:49.292Z,24.40
2017-08-24T10:40:17.375Z,24.70
2017-08-24T10:42:45.448Z,25.10
2017-08-24T10:45:13.519Z,25.60
2017-08-24T10:47:41.591Z,26.50
2017-08-24T10:50:09.720Z,26.40
2017-08-24T10:52:37.805Z,27.20
2017-08-24T10:55:05.862Z,27.80
2017-08-24T10:57:34.702Z,27.10
2017-08-24T11:00:02.844Z,27.10
2017-08-24T11:02:30.995Z,27.50
2017-08-24T11:04:59.087Z,29.00
2017-08-24T11:07:27.683Z,29.60
2017-08-24T11:09:55.743Z,28.90
2017-08-24T11:12:23.821Z,28.10
2017-08-24T11:14:51.900Z,27.80
2017-08-24T11:17:19.971Z,27.10
2017-08-24T11:19:48.027Z,26.70
2017-08-24T11:22:16.095Z,26.30
2017-08-24T11:24:44.194Z,26.20
2017-08-24T11:27:12.266Z,26.40
2017-08-24T11:29:40.335Z,26.30
2017-08-24T11:32:08.428Z,25.90
2017-08-24T11:34:36.621Z,25.80
2017-08-24T11:37:04.728Z,25.80
2017-08-24T11:39:32.847Z,26.30
2017-08-24T11:42:00.919Z,26.60
2017-08-24T11:44:29.936Z,26.70
2017-08-24T11:46:58.022Z,26.40
2017-08-24T11:49:26.063Z,25.60
2017-08-24T11:51:54.138Z,25.60
2017-08-24T11:54:22.204Z,27.00
2017-08-24T11:56:50.272Z,29.10
2017-08-24T11:59:18.339Z,30.20
2017-08-24T12:01:46.421Z,30.20
2017-08-24T12:04:14.475Z,29.00
2017-08-24T12:06:43.026Z,27.90
2017-08-24T12:09:11.122Z,27.80
2017-08-24T12:11:39.206Z,27.50
2017-08-24T12:14:07.278Z,27.40
2017-08-24T12:16:35.334Z,27.10
2017-08-24T12:19:03.411Z,27.00
2017-08-24T12:21:31.479Z,27.10
2017-08-24T12:23:59.556Z,27.10
2017-08-24T12:26:27.619Z,27.20
2017-08-24T12:28:55.680Z,27.00
2017-08-24T12:31:23.748Z,26.80
2017-08-24T12:33:51.824Z,26.80
2017-08-24T12:36:19.903Z,26.90
2017-08-24T12:38:47.991Z,26.90
2017-08-24T12:41:16.080Z,26.90
2017-08-24T12:43:44.160Z,26.80
2017-08-24T12:46:13.002Z,26.40
2017-08-24T12:48:41.082Z,26.40
2017-08-24T12:51:09.999Z,26.40
2017-08-24T12:53:38.844Z,26.50
2017-08-24T12:56:06.921Z,26.40
2017-08-24T12:58:34.983Z,26.40
2017-08-24T13:01:03.094Z,26.40
2017-08-24T13:03:31.153Z,26.40
2017-08-24T13:05:59.223Z,26.50
2017-08-24T13:08:27.295Z,26.50
2017-08-24T13:10:55.402Z,26.40
2017-08-24T13:13:23.490Z,26.10
2017-08-24T13:15:52.331Z,26.40
2017-08-24T13:18:20.400Z,26.30
2017-08-24T13:20:48.516Z,26.40
2017-08-24T13:23:16.599Z,25.80
2017-08-24T13:25:45.460Z,25.90
2017-08-24T13:28:13.534Z,25.80
2017-08-24T13:30:41.618Z,26.10
2017-08-24T13:33:09.683Z,26.30
2017-08-24T13:35:37.763Z,26.50
2017-08-24T13:38:06.081Z,26.60
2017-08-24T13:40:34.138Z,26.70
2017-08-24T13:43:02.218Z,27.10
2017-08-24T13:45:30.282Z,27.30
2017-08-24T13:47:58.359Z,27.20
2017-08-24T13:50:26.423Z,26.90
2017-08-24T13:52:54.520Z,26.60
2017-08-24T13:55:22.578Z,26.60
2017-08-24T13:57:50.650Z,26.40
2017-08-24T14:00:18.741Z,26.70
2017-08-24T14:02:46.786Z,26.90
2017-08-24T14:05:14.882Z,26.80
2017-08-24T14:07:42.943Z,26.70
2017-08-24T14:10:11.039Z,26.40
2017-08-24T14:12:39.131Z,26.10
2017-08-24T14:15:07.187Z,26.20
2017-08-24T14:17:35.271Z,26.10
2017-08-24T14:20:04.108Z,25.60
2017-08-24T14:22:32.196Z,25.60
2017-08-24T14:25:00.278Z,25.90
2017-08-24T14:27:28.349Z,26.20
2017-08-24T14:29:56.410Z,26.40
2017-08-24T14:32:24.515Z,26.60
2017-08-24T14:34:52.581Z,26.60
2017-08-24T14:37:20.644Z,26.50
2017-08-24T14:39:48.758Z,26.40
2017-08-24T14:42:16.848Z,26.10
2017-08-24T14:44:44.929Z,25.80
2017-08-24T14:47:12.975Z,25.70
2017-08-24T14:49:41.069Z,25.60
2017-08-24T14:52:10.283Z,25.50
2017-08-24T14:54:38.395Z,25.80
2017-08-24T14:57:06.544Z,26.00
2017-08-24T14:59:34.613Z,26.00
2017-08-24T15:02:03.604Z,25.80
2017-08-24T15:04:31.671Z,25.70
2017-08-24T15:06:59.791Z,25.70
2017-08-24T15:09:27.852Z,25.70
2017-08-24T15:11:55.933Z,25.40
2017-08-24T15:14:23.996Z,25.30
2017-08-24T15:16:52.066Z,25.20
2017-08-24T15:19:20.114Z,25.10
2017-08-24T15:21:48.226Z,25.10
2017-08-24T15:24:16.386Z,24.90
2017-08-24T15:26:44.415Z,25.10
2017-08-24T15:29:12.504Z,25.30
2017-08-24T15:31:40.604Z,25.30
2017-08-24T15:34:09.517Z,25.30
2017-08-24T15:36:38.336Z,25.20
2017-08-24T15:39:06.414Z,25.20
2017-08-24T15:41:34.487Z,25.10
2017-08-24T15:44:02.543Z,25.10
2017-08-24T15:46:30.740Z,25.00
2017-08-24T15:48:58.797Z,25.00
2017-08-24T15:51:26.873Z,24.90
2017-08-24T15:53:54.972Z,24.90
2017-08-24T15:56:23.015Z,24.70
2017-08-24T15:58:51.098Z,24.70
2017-08-24T16:01:19.171Z,24.60
2017-08-24T16:03:47.259Z,24.60
2017-08-24T16:06:15.306Z,24.50
2017-08-24T16:08:43.371Z,24.60
2017-08-24T16:11:11.452Z,24.80
2017-08-24T16:13:39.514Z,24.90
2017-08-24T16:16:07.566Z,24.60
2017-08-24T16:18:35.631Z,24.70
2017-08-24T16:21:03.718Z,24.60
2017-08-24T16:23:31.844Z,24.40
2017-08-24T16:25:59.859Z,24.20
2017-08-24T16:28:27.951Z,24.20
2017-08-24T16:30:56.011Z,24.10
2017-08-24T16:33:24.100Z,24.10
2017-08-24T16:35:52.156Z,24.20
2017-08-24T16:38:20.203Z,24.30
2017-08-24T16:40:48.271Z,24.50
2017-08-24T16:43:16.375Z,24.60
2017-08-24T16:45:44.441Z,24.60
2017-08-24T16:48:12.631Z,24.40
2017-08-24T16:50:40.733Z,24.20
2017-08-24T16:53:09.567Z,24.10
2017-08-24T16:55:37.687Z,24.10
2017-08-24T16:58:05.824Z,24.10
2017-08-24T17:00:33.867Z,24.30
2017-08-24T17:03:01.938Z,24.30
2017-08-24T17:05:30.043Z,24.40
2017-08-24T17:07:58.117Z,24.30
2017-08-24T17:10:26.233Z,24.20
2017-08-24T17:12:54.293Z,24.10
2017-08-24T17:15:23.209Z,24.20
2017-08-24T17:17:51.835Z,24.20
2017-08-24T17:20:19.961Z,24.20
2017-08-24T17:22:48.096Z,24.10
2017-08-24T17:25:16.138Z,24.10
2017-08-24T17:27:44.207Z,24.10
2017-08-24T17:30:12.287Z,24.00
2017-08-24T17:32:40.352Z,23.90
2017-08-24T17:35:08.422Z,23.80
2017-08-24T17:37:36.512Z,23.70
2017-08-24T17:40:04.563Z,23.70
2017-08-24T17:42:32.656Z,23.60
2017-08-24T17:45:00.707Z,23.70
2017-08-24T17:47:28.803Z,23.70
2017-08-24T17:49:56.868Z,23.60
2017-08-24T17:52:24.920Z,23.60
2017-08-24T17:54:53.019Z,23.70
2017-08-24T17:57:21.083Z,23.70
2017-08-24T17:59:49.144Z,23.70
2017-08-24T18:02:17.255Z,23.60
2017-08-24T18:04:45.319Z,23.50
2017-08-24T18:07:13.386Z,23.60
2017-08-24T18:09:42.439Z,23.60
2017-08-24T18:12:10.523Z,23.70
2017-08-24T18:14:38.595Z,23.70
2017-08-24T18:17:06.748Z,23.70
2017-08-24T18:19:34.886Z,23.70
2017-08-24T18:22:03.535Z,23.70
2017-08-24T18:24:31.636Z,23.80
2017-08-24T18:26:59.815Z,23.80
2017-08-24T18:29:27.854Z,23.80
2017-08-24T18:31:55.954Z,23.80
2017-08-24T18:34:24.000Z,23.80
2017-08-24T18:36:52.063Z,23.80
2017-08-24T18:39:20.142Z,23.70
2017-08-24T18:41:48.200Z,23.60
2017-08-24T18:44:16.304Z,23.60
2017-08-24T18:46:44.437Z,23.50
2017-08-24T18:49:12.469Z,23.40
2017-08-24T18:51:40.533Z,23.40
2017-08-24T18:54:08.611Z,23.30
2017-08-24T18:56:36.687Z,23.20
2017-08-24T18:59:07.440Z,23.20
2017-08-24T19:01:35.491Z,23.00
2017-08-24T19:04:04.410Z,23.00
2017-08-24T19:06:32.505Z,22.90
2017-08-24T19:09:00.562Z,22.90
2017-08-24T19:11:28.699Z,22.80
2017-08-24T19:13:56.781Z,22.80
2017-08-24T19:16:24.850Z,22.70
2017-08-24T19:18:52.935Z,22.70
2017-08-24T19:21:21.013Z,22.60
2017-08-24T19:23:49.090Z,22.60
2017-08-24T19:26:17.167Z,22.50
2017-08-24T19:28:45.243Z,22.40
2017-08-24T19:31:13.362Z,22.40
2017-08-24T19:33:42.204Z,22.30
2017-08-24T19:36:10.295Z,22.30
2017-08-24T19:38:39.200Z,22.20
2017-08-24T19:41:07.250Z,22.20
2017-08-24T19:43:35.358Z,22.20
2017-08-24T19:46:03.431Z,22.10
2017-08-24T19:48:31.586Z,22.10
2017-08-24T19:51:00.427Z,22.10
2017-08-24T19:53:28.468Z,22.10
2017-08-24T19:55:56.609Z,22.10
2017-08-24T19:58:26.953Z,22.10
2017-08-24T20:00:55.052Z,22.00
2017-08-24T20:03:24.041Z,22.00
2017-08-24T20:05:52.125Z,22.00
2017-08-24T20:08:21.252Z,22.00
2017-08-24T20:10:53.082Z,22.00
2017-08-24T20:13:22.125Z,21.90
2017-08-24T20:15:50.197Z,21.80
2017-08-24T20:18:18.296Z,21.80
2017-08-24T20:20:46.398Z,21.80
2017-08-24T20:23:16.002Z,21.80
2017-08-24T20:25:44.094Z,21.80
2017-08-24T20:28:13.657Z,21.70
2017-08-24T20:30:41.731Z,21.70
2017-08-24T20:33:09.812Z,21.70
2017-08-24T20:35:37.895Z,21.70
2017-08-24T20:38:05.986Z,21.70
2017-08-24T20:40:34.044Z,21.60
2017-08-24T20:43:02.130Z,21.60
2017-08-24T20:45:30.207Z,21.60
2017-08-24T20:47:58.260Z,21.60
2017-08-24T20:50:27.148Z,21.60
2017-08-24T20:52:55.998Z,21.60
2017-08-24T20:55:24.080Z,21.60
2017-08-24T20:57:52.177Z,21.70
2017-08-24T21:00:20.510Z,21.60
2017-08-24T21:02:48.607Z,21.60
2017-08-24T21:05:16.690Z,21.60
2017-08-24T21:07:45.512Z,21.60
2017-08-24T21:10:13.583Z,21.60
2017-08-24T21:12:41.627Z,21.60
2017-08-24T21:15:09.798Z,21.70
2017-08-24T21:17:37.833Z,21.70
2017-08-24T21:20:05.904Z,21.70
2017-08-24T21:22:33.983Z,21.60
2017-08-24T21:25:02.059Z,21.60
2017-08-24T21:27:30.132Z,21.60
2017-08-24T21:39:43.191Z,21.60
2017-08-24T21:42:11.284Z,20.90
2017-08-24T21:44:39.337Z,20.90
2017-08-24T21:47:07.403Z,21.00
2017-08-24T21:49:35.571Z,21.00
2017-08-24T21:52:03.651Z,21.00
2017-08-24T21:54:32.584Z,21.10
2017-08-24T21:57:00.659Z,21.10
2017-08-24T21:59:28.712Z,21.20
2017-08-24T22:01:56.802Z,21.20
2017-08-24T22:04:24.878Z,21.20
2017-08-24T22:06:52.939Z,21.10
2017-08-24T22:09:21.011Z,21.00
2017-08-24T22:11:49.058Z,21.00
2017-08-24T22:14:17.139Z,21.00
2017-08-24T22:16:45.186Z,20.90
2017-08-24T22:19:13.271Z,20.90
2017-08-24T22:21:41.327Z,20.90
2017-08-24T22:24:09.441Z,20.90
2017-08-24T22:26:37.498Z,20.80
2017-08-24T22:29:05.579Z,20.80
2017-08-24T22:31:33.650Z,20.80
2017-08-24T22:34:02.226Z,20.70
2017-08-24T22:36:30.303Z,20.70
2017-08-24T22:38:58.375Z,20.60
2017-08-24T22:41:26.455Z,20.60
2017-08-24T22:43:54.508Z,20.60
2017-08-24T22:46:22.571Z,20.50
2017-08-24T22:48:50.655Z,20.50
2017-08-24T22:51:18.740Z,20.50
2017-08-24T23:07:09.571Z,20.20
2017-08-24T23:09:37.629Z,20.30
2017-08-24T23:12:06.209Z,20.30
2017-08-24T23:14:35.030Z,20.30
2017-08-24T23:17:03.094Z,20.30
2017-08-24T23:19:31.188Z,20.30
2017-08-24T23:21:59.238Z,20.30
2017-08-24T23:24:27.328Z,20.30
2017-08-24T23:26:55.402Z,20.20
2017-08-24T23:29:23.450Z,20.10
2017-08-24T23:31:51.523Z,20.10
2017-08-24T23:34:19.595Z,20.10
2017-08-24T23:36:47.685Z,20.10
2017-08-24T23:39:15.754Z,20.10
2017-08-24T23:41:43.819Z,20.10
2017-08-24T23:44:11.883Z,20.10
2017-08-24T23:46:39.963Z,20.10
2017-08-24T23:49:08.020Z,20.10
2017-08-24T23:51:36.094Z,20.10
2017-08-24T23:54:04.147Z,20.10
2017-08-24T23:56:32.212Z,20.10
2017-08-24T23:59:00.308Z,20.10
